Humidity-temperature Sensor

Selected Measurement Type: Air Temperature

 
Air Temperature [°C]     6 entries per hour
Showing data from 5/28/2017 (00:00:00 Z) to 5/25/2017 (00:01:00 Z)
Previous Next [ Day | 3-Days | 7-Days ]
First Last
Prev [ Day | 3-Days | 7-Days ] Next
First Last

Start Time:     :
End Time:     :     
Time (in GMT) :00 :50 :40 :30 :20 :10
Previous Next [ Day | 3-Days | 7-Days ]
First Last
Prev [ Day | 3-Days | 7-Days ] Next
First Last


123 => good data
MM => data is determined as missing
-- => data not received/configured
Back to Top Back to Top
5/28/2017 00:00 to 23:10 27.76 27.78 27.78 27.76 27.71 27.73
5/27/2017 23:00 to 22:10 27.80 27.64 27.63 27.55 27.68 27.66
5/27/2017 22:00 to 21:10 27.62 27.56 27.57 27.60 27.61 27.58
5/27/2017 21:00 to 20:10 27.59 27.63 27.44 27.39 27.36 27.51
5/27/2017 20:00 to 19:10 27.46 27.41 27.39 27.44 27.38 27.53
5/27/2017 19:00 to 18:10 27.46 27.39 27.42 27.42 27.44 27.52
5/27/2017 18:00 to 17:10 27.46 27.49 27.36 27.38 27.44 27.45
5/27/2017 17:00 to 16:10 27.37 27.32 27.34 27.43 27.43 27.49
5/27/2017 16:00 to 15:10 27.59 27.45 27.52 27.47 27.30 27.30
5/27/2017 15:00 to 14:10 27.52 27.56 27.39 27.47 27.38 27.31
5/27/2017 14:00 to 13:10 27.33 27.18 27.22 27.12 27.11 27.16
5/27/2017 13:00 to 12:10 27.12 27.18 27.15 27.05 27.16 27.09
5/27/2017 12:00 to 11:10 27.16 27.02 27.03 27.06 27.22 27.16
5/27/2017 11:00 to 10:10 27.11 27.01 27.13 27.07 27.07 27.17
5/27/2017 10:00 to 9:10 27.16 27.13 27.11 27.21 27.11 27.10
5/27/2017 09:00 to 8:10 27.16 27.18 27.16 27.29 27.38 27.31
5/27/2017 08:00 to 7:10 27.21 27.31 27.27 27.36 27.34 27.40
5/27/2017 07:00 to 6:10 27.34 27.39 27.51 27.45 27.50 27.52
5/27/2017 06:00 to 5:10 27.54 27.55 27.43 27.58 27.54 27.52
5/27/2017 05:00 to 4:10 27.59 27.53 27.54 27.53 27.57 27.63
5/27/2017 04:00 to 3:10 27.65 27.63 27.63 27.73 27.72 27.68
5/27/2017 03:00 to 2:10 27.66 27.59 27.64 27.65 27.64 27.69
5/27/2017 02:00 to 1:10 27.66 27.60 27.64 27.58 27.63 27.58
5/27/2017 01:00 to 0:10 27.64 27.95 27.65 27.81 27.98 28.01
5/27/2017 00:00 to 23:10 28.04 28.14 28.02 27.95 27.95 27.87
5/26/2017 23:00 to 22:10 27.96 27.92 27.90 27.87 27.96 27.77
5/26/2017 22:00 to 21:10 27.89 27.90 27.93 27.74 27.81 27.75
5/26/2017 21:00 to 20:10 27.81 27.81 27.81 27.77 27.75 27.76
5/26/2017 20:00 to 19:10 27.63 27.68 27.67 27.70 27.68 27.72
5/26/2017 19:00 to 18:10 27.75 27.69 27.63 27.63 27.56 27.61
5/26/2017 18:00 to 17:10 27.61 27.64 27.67 27.71 27.58 27.58
5/26/2017 17:00 to 16:10 27.64 27.65 27.64 27.65 27.49 27.60
5/26/2017 16:00 to 15:10 27.56 27.56 27.54 27.59 27.65 27.50
5/26/2017 15:00 to 14:10 27.58 27.55 27.56 27.62 27.55 27.56
5/26/2017 14:00 to 13:10 27.54 27.42 27.41 27.39 27.42 27.38
5/26/2017 13:00 to 12:10 27.42 27.45 27.36 27.46 27.35 27.29
5/26/2017 12:00 to 11:10 27.26 27.32 27.29 27.25 27.26 27.33
5/26/2017 11:00 to 10:10 -- -- -- -- -- --
5/26/2017 10:00 to 9:10 27.27 27.36 27.34 27.33 27.40 27.34
5/26/2017 09:00 to 8:10 27.36 27.38 27.44 27.40 27.44 27.49
5/26/2017 08:00 to 7:10 27.48 27.60 27.52 27.55 27.49 27.55
5/26/2017 07:00 to 6:10 27.39 27.52 27.45 27.53 27.53 27.61
5/26/2017 06:00 to 5:10 27.56 27.59 27.61 27.71 27.61 27.71
5/26/2017 05:00 to 4:10 27.72 27.77 27.68 27.61 27.56 27.62
5/26/2017 04:00 to 3:10 27.65 27.64 27.66 27.62 27.57 27.58
5/26/2017 03:00 to 2:10 27.56 27.58 27.56 27.62 27.68 27.61
5/26/2017 02:00 to 1:10 27.63 27.66 27.69 27.65 27.65 27.63
5/26/2017 01:00 to 0:10 27.69 27.74 27.83 27.87 27.72 27.94
5/26/2017 00:00 to 23:10 27.88 27.80 27.65 27.68 27.70 27.91
5/25/2017 23:00 to 22:10 28.03 27.84 27.79 27.87 27.90 27.91
5/25/2017 22:00 to 21:10 27.86 27.91 27.85 27.91 27.78 27.74
5/25/2017 21:00 to 20:10 27.83 27.77 27.80 27.87 27.77 27.80
5/25/2017 20:00 to 19:10 27.83 27.78 27.73 27.65 27.70 27.72
5/25/2017 19:00 to 18:10 27.75 27.71 27.74 27.69 27.69 27.70
5/25/2017 18:00 to 17:10 27.72 27.72 27.69 27.72 27.61 27.71
5/25/2017 17:00 to 16:10 27.60 27.64 27.66 27.63 27.66 27.62
5/25/2017 16:00 to 15:10 27.76 27.66 27.65 27.68 27.56 27.61
5/25/2017 15:00 to 14:10 27.67 27.58 27.58 27.54 27.50 27.60
5/25/2017 14:00 to 13:10 27.57 27.53 27.50 27.57 27.61 27.62
5/25/2017 13:00 to 12:10 27.56 27.47 27.53 27.67 27.55 27.63
5/25/2017 12:00 to 11:10 27.57 27.58 27.67 27.52 27.54 27.53
5/25/2017 11:00 to 10:10 27.58 27.50 27.49 27.54 27.47 27.47
5/25/2017 10:00 to 9:10 27.48 27.42 27.40 27.48 27.46 27.43
5/25/2017 09:00 to 8:10 27.44 27.42 27.51 27.56 27.58 27.54
5/25/2017 08:00 to 7:10 27.55 27.58 27.56 27.61 27.64 27.60
5/25/2017 07:00 to 6:10 27.65 27.63 27.63 27.65 27.65 27.81
5/25/2017 06:00 to 5:10 27.68 27.63 27.73 27.70 27.69 27.69
5/25/2017 05:00 to 4:10 27.63 27.65 27.63 27.64 27.57 27.61
5/25/2017 04:00 to 3:10 27.67 27.71 27.65 27.72 27.71 27.65
5/25/2017 03:00 to 2:10 27.67 27.70 27.76 27.74 27.73 27.76
5/25/2017 02:00 to 1:10 27.73 27.69 27.71 27.73 27.71 27.75
5/25/2017 01:00 to 0:10 27.77 27.91 27.89 27.85 27.81 27.88